Time,TemperatureF,DewpointF,PressureIn,WindDirection,WindDirectionDegrees,WindSpeedMPH,WindSpeedGustMPH,Humidity,HourlyPrecipIn,Conditions,Clouds,dailyrainin,SoftwareType,DateUTC
2013-07-29 00:01:00,62.0,55.0,29.67,ESE,117,13.0,15.0,77,0.00,,,0.00,,2013-07-29 07:01:00,
2013-07-29 00:12:00,62.0,55.0,29.67,ESE,117,13.0,15.0,77,0.00,,,0.00,,2013-07-29 07:12:00,
2013-07-29 00:22:00,61.0,53.0,29.67,ESE,122,14.0,15.0,76,0.00,,,0.00,,2013-07-29 07:22:00,
2013-07-29 00:33:00,61.0,53.0,29.67,ESE,122,14.0,15.0,76,0.00,,,0.00,,2013-07-29 07:33:00,
2013-07-29 00:43:00,61.0,53.0,29.67,ESE,122,14.0,15.0,76,0.00,,,0.00,,2013-07-29 07:43:00,
2013-07-29 00:53:00,61.0,53.0,29.67,ESE,122,14.0,15.0,76,0.00,,,0.00,,2013-07-29 07:53:00,
2013-07-29 01:12:00,60.0,54.0,29.67,ESE,122,15.0,18.0,81,0.00,,,0.00,,2013-07-29 08:12:00,
2013-07-29 01:33:00,60.0,54.0,29.67,ESE,119,15.0,16.0,81,0.00,,,0.00,,2013-07-29 08:33:00,
2013-07-29 01:52:00,60.0,54.0,29.68,ESE,121,13.0,16.0,82,0.00,,,0.00,,2013-07-29 08:52:00,
2013-07-29 02:02:00,59.0,55.0,29.68,ESE,122,11.0,15.0,86,0.00,,,0.00,,2013-07-29 09:02:00,
2013-07-29 02:12:00,59.0,55.0,29.68,ESE,122,11.0,15.0,86,0.00,,,0.00,,2013-07-29 09:12:00,
2013-07-29 02:22:00,58.0,54.0,29.68,SE,125,10.0,13.0,85,0.00,,,0.00,,2013-07-29 09:22:00,
2013-07-29 02:33:00,58.0,54.0,29.68,SE,125,10.0,13.0,85,0.00,,,0.00,,2013-07-29 09:33:00,
2013-07-29 02:43:00,59.0,55.0,29.68,ESE,120,10.0,12.0,87,0.00,,,0.00,,2013-07-29 09:43:00,
2013-07-29 02:53:00,59.0,55.0,29.68,ESE,120,10.0,12.0,87,0.00,,,0.00,,2013-07-29 09:53:00,
2013-07-29 03:13:00,59.0,55.0,29.68,ESE,114,9.0,11.0,86,0.00,,,0.00,,2013-07-29 10:13:00,
2013-07-29 03:33:00,59.0,55.0,29.68,East,101,8.0,10.0,88,0.00,,,0.00,,2013-07-29 10:33:00,
2013-07-29 03:55:00,59.0,55.0,29.67,East,94,5.0,7.0,87,0.00,,,0.00,,2013-07-29 10:55:00,
2013-07-29 04:02:00,61.0,55.0,29.68,ENE,66,6.0,8.0,81,0.00,,,0.00,,2013-07-29 11:02:00,
2013-07-29 04:12:00,61.0,55.0,29.68,ENE,66,6.0,8.0,81,0.00,,,0.00,,2013-07-29 11:12:00,
2013-07-29 04:34:00,58.0,55.0,29.68,East,80,5.0,8.0,89,0.00,,,0.00,,2013-07-29 11:34:00,
2013-07-29 04:43:00,55.0,52.0,29.68,North,0,0.0,4.0,91,0.00,,,0.00,,2013-07-29 11:43:00,
2013-07-29 04:57:00,55.0,52.0,29.68,North,0,0.0,4.0,91,0.00,,,0.00,,2013-07-29 11:57:00,
2013-07-29 05:13:00,54.0,52.0,29.68,North,0,0.0,3.0,93,0.00,,,0.00,,2013-07-29 12:13:00,
2013-07-29 05:22:00,54.0,52.0,29.69,North,0,0.0,0.0,94,0.00,,,0.00,,2013-07-29 12:22:00,
2013-07-29 05:43:00,54.0,52.0,29.70,North,0,0.0,5.0,94,0.00,,,0.00,,2013-07-29 12:43:00,
2013-07-29 06:12:00,54.0,53.0,29.70,North,0,0.0,0.0,95,0.00,,,0.00,,2013-07-29 13:12:00,
2013-07-29 06:22:00,54.0,53.0,29.71,North,0,0.0,0.0,95,0.00,,,0.00,,2013-07-29 13:22:00,
2013-07-29 06:55:00,54.0,53.0,29.71,North,0,0.0,3.0,95,0.00,,,0.00,,2013-07-29 13:55:00,
2013-07-29 07:02:00,54.0,53.0,29.71,North,0,0.0,1.0,95,0.00,,,0.00,,2013-07-29 14:02:00,
2013-07-29 07:12:00,54.0,53.0,29.71,North,0,0.0,1.0,95,0.00,,,0.00,,2013-07-29 14:12:00,
2013-07-29 07:22:00,54.0,53.0,29.73,North,0,0.0,4.0,95,0.00,,,0.00,,2013-07-29 14:22:00,
2013-07-29 07:33:00,54.0,53.0,29.73,North,0,0.0,4.0,95,0.00,,,0.00,,2013-07-29 14:33:00,
2013-07-29 07:42:00,54.0,53.0,29.73,North,0,0.0,0.0,95,0.00,,,0.00,,2013-07-29 14:42:00,
2013-07-29 07:55:00,54.0,53.0,29.73,North,0,0.0,0.0,95,0.00,,,0.00,,2013-07-29 14:55:00,
2013-07-29 08:02:00,55.0,54.0,29.74,North,0,0.0,2.0,95,0.00,,,0.00,,2013-07-29 15:02:00,
2013-07-29 08:12:00,55.0,54.0,29.74,North,0,0.0,2.0,95,0.00,,,0.00,,2013-07-29 15:12:00,
2013-07-29 08:35:00,56.0,55.0,29.74,North,0,0.0,0.0,95,0.00,,,0.00,,2013-07-29 15:35:00,
2013-07-29 08:43:00,57.0,56.0,29.74,North,0,0.0,0.0,96,0.00,,,0.00,,2013-07-29 15:43:00,
2013-07-29 08:55:00,57.0,56.0,29.74,North,0,0.0,0.0,96,0.00,,,0.00,,2013-07-29 15:55:00,
2013-07-29 09:02:00,57.0,56.0,29.75,NE,51,3.0,6.0,96,0.00,,,0.00,,2013-07-29 16:02:00,
2013-07-29 09:12:00,57.0,56.0,29.75,NE,51,3.0,6.0,96,0.00,,,0.00,,2013-07-29 16:12:00,
2013-07-29 09:35:00,58.0,57.0,29.75,North,0,0.0,6.0,96,0.00,,,0.00,,2013-07-29 16:35:00,
2013-07-29 09:56:00,58.0,57.0,29.76,ESE,118,4.0,8.0,95,0.00,,,0.00,,2013-07-29 16:56:00,
2013-07-29 10:02:00,59.0,57.0,29.76,ESE,107,4.0,7.0,94,0.00,,,0.00,,2013-07-29 17:02:00,
2013-07-29 10:12:00,59.0,57.0,29.76,ESE,107,4.0,7.0,94,0.00,,,0.00,,2013-07-29 17:12:00,
2013-07-29 10:58:00,61.0,56.0,29.77,SSE,163,4.0,8.0,85,0.00,,,0.00,,2013-07-29 17:58:00,
2013-07-29 11:13:00,63.0,57.0,29.78,SSE,164,5.0,8.0,80,0.00,,,0.00,,2013-07-29 18:13:00,
2013-07-29 11:33:00,62.0,56.0,29.78,SSE,167,6.0,12.0,80,0.00,,,0.00,,2013-07-29 18:33:00,
2013-07-29 11:57:00,63.0,56.0,29.79,SSE,165,6.0,10.0,78,0.00,,,0.00,,2013-07-29 18:57:00,
2013-07-29 12:13:00,64.0,57.0,29.79,SSE,166,6.0,12.0,79,0.00,,,0.00,,2013-07-29 19:13:00,
2013-07-29 12:35:00,64.0,57.0,29.79,SE,145,5.0,9.0,79,0.00,,,0.00,,2013-07-29 19:35:00,
2013-07-29 12:44:00,64.0,57.0,29.79,SSE,156,7.0,11.0,77,0.00,,,0.00,,2013-07-29 19:44:00,
2013-07-29 12:55:00,64.0,57.0,29.79,SSE,156,7.0,11.0,77,0.00,,,0.00,,2013-07-29 19:55:00,
2013-07-29 13:22:00,64.0,57.0,29.79,South,182,4.0,9.0,78,0.00,,,0.00,,2013-07-29 20:22:00,
2013-07-29 13:33:00,64.0,57.0,29.79,South,182,4.0,9.0,78,0.00,,,0.00,,2013-07-29 20:33:00,
2013-07-29 13:44:00,65.0,57.0,29.80,SE,129,4.0,7.0,76,0.00,,,0.00,,2013-07-29 20:44:00,
2013-07-29 13:57:00,65.0,57.0,29.80,SE,129,4.0,7.0,76,0.00,,,0.00,,2013-07-29 20:57:00,
2013-07-29 14:33:00,68.0,57.0,29.79,North,0,0.0,0.0,69,0.00,,,0.00,,2013-07-29 21:33:00,
2013-07-29 14:43:00,68.0,57.0,29.78,South,169,1.0,5.0,68,0.00,,,0.00,,2013-07-29 21:43:00,
2013-07-29 15:26:00,65.0,-99.9,29.78,SE,144,1.0,6.0,-999,0.00,,,0.00,,2013-07-29 22:26:00,
2013-07-29 15:39:00,65.0,-99.9,29.78,SE,144,1.0,6.0,-999,0.00,,,0.00,,2013-07-29 22:39:00,
2013-07-29 15:55:00,66.0,56.0,29.78,North,0,0.0,2.0,70,0.00,,,0.00,,2013-07-29 22:55:00,
2013-07-29 16:02:00,69.0,57.0,29.77,North,0,0.0,1.0,65,0.00,,,0.00,,2013-07-29 23:02:00,
2013-07-29 16:12:00,69.0,57.0,29.77,North,0,0.0,1.0,65,0.00,,,0.00,,2013-07-29 23:12:00,
2013-07-29 16:34:00,66.0,55.0,29.77,North,0,0.0,5.0,68,0.00,,,0.00,,2013-07-29 23:34:00,
2013-07-29 16:55:00,67.0,56.0,29.77,North,0,0.0,1.0,68,0.00,,,0.00,,2013-07-29 23:55:00,
2013-07-29 17:13:00,69.0,56.0,29.77,North,0,0.0,1.0,64,0.00,,,0.00,,2013-07-30 00:13:00,
2013-07-29 17:33:00,70.0,56.0,29.77,North,0,0.0,9.0,62,0.00,,,0.00,,2013-07-30 00:33:00,
2013-07-29 17:43:00,71.0,56.0,29.77,WNW,284,5.0,9.0,60,0.00,,,0.00,,2013-07-30 00:43:00,
2013-07-29 17:55:00,71.0,56.0,29.77,WNW,284,5.0,9.0,60,0.00,,,0.00,,2013-07-30 00:55:00,
2013-07-29 18:02:00,71.0,57.0,29.77,North,0,0.0,7.0,62,0.00,,,0.00,,2013-07-30 01:02:00,
2013-07-29 18:13:00,71.0,57.0,29.77,North,0,0.0,7.0,62,0.00,,,0.00,,2013-07-30 01:13:00,
2013-07-29 18:43:00,69.0,56.0,29.76,NNW,343,3.0,6.0,63,0.00,,,0.00,,2013-07-30 01:43:00,
2013-07-29 18:57:00,69.0,56.0,29.76,NNW,343,3.0,6.0,63,0.00,,,0.00,,2013-07-30 01:57:00,
2013-07-29 19:13:00,70.0,56.0,29.76,West,275,4.0,7.0,61,0.00,,,0.00,,2013-07-30 02:13:00,
2013-07-29 19:22:00,69.0,55.0,29.76,North,0,0.0,5.0,62,0.00,,,0.00,,2013-07-30 02:22:00,
2013-07-29 19:34:00,69.0,55.0,29.76,North,0,0.0,5.0,62,0.00,,,0.00,,2013-07-30 02:34:00,
2013-07-29 19:55:00,69.0,55.0,29.76,North,0,0.0,5.0,62,0.00,,,0.00,,2013-07-30 02:55:00,
2013-07-29 20:01:00,66.0,56.0,29.77,NW,315,7.0,8.0,69,0.00,,,0.00,,2013-07-30 03:01:00,
2013-07-29 20:15:00,66.0,56.0,29.77,NW,315,7.0,8.0,69,0.00,,,0.00,,2013-07-30 03:15:00,
2013-07-29 20:24:00,67.0,56.0,29.78,NNW,338,5.0,8.0,68,0.00,,,0.00,,2013-07-30 03:24:00,
2013-07-29 20:33:00,67.0,56.0,29.78,NNW,338,5.0,8.0,68,0.00,,,0.00,,2013-07-30 03:33:00,
2013-07-29 20:43:00,66.0,56.0,29.78,NNW,342,5.0,6.0,69,0.00,,,0.00,,2013-07-30 03:43:00,
2013-07-29 20:53:00,66.0,56.0,29.78,NNW,342,5.0,6.0,69,0.00,,,0.00,,2013-07-30 03:53:00,
2013-07-29 21:02:00,64.0,55.0,29.78,NNW,344,2.0,4.0,73,0.00,,,0.00,,2013-07-30 04:02:00,
2013-07-29 21:22:00,64.0,55.0,29.78,NNW,344,2.0,4.0,73,0.00,,,0.00,,2013-07-30 04:22:00,
2013-07-29 21:32:00,64.0,55.0,29.78,NNW,344,2.0,4.0,73,0.00,,,0.00,,2013-07-30 04:32:00,
2013-07-29 21:43:00,66.0,55.0,29.79,East,89,4.0,7.0,68,0.00,,,0.00,,2013-07-30 04:43:00,
2013-07-29 21:53:00,66.0,55.0,29.79,East,89,4.0,7.0,68,0.00,,,0.00,,2013-07-30 04:53:00,
2013-07-29 22:02:00,66.0,55.0,29.79,East,89,4.0,7.0,68,0.00,,,0.00,,2013-07-30 05:02:00,
2013-07-29 22:12:00,66.0,55.0,29.79,East,89,4.0,7.0,68,0.00,,,0.00,,2013-07-30 05:12:00,
2013-07-29 22:22:00,64.0,55.0,29.80,ESE,108,5.0,6.0,73,0.00,,,0.00,,2013-07-30 05:22:00,
2013-07-29 22:33:00,64.0,55.0,29.80,ESE,108,5.0,6.0,73,0.00,,,0.00,,2013-07-30 05:33:00,
2013-07-29 22:45:00,64.0,55.0,29.80,ESE,109,6.0,8.0,72,0.00,,,0.00,,2013-07-30 05:45:00,
2013-07-29 22:52:00,64.0,55.0,29.80,ESE,109,6.0,8.0,72,0.00,,,0.00,,2013-07-30 05:52:00,
2013-07-29 23:01:00,64.0,55.0,29.80,ESE,109,6.0,8.0,72,0.00,,,0.00,,2013-07-30 06:01:00,
2013-07-29 23:12:00,64.0,55.0,29.80,ESE,109,6.0,8.0,72,0.00,,,0.00,,2013-07-30 06:12:00,
2013-07-29 23:43:00,64.0,54.0,29.80,ESE,116,14.0,15.0,70,0.00,,,0.00,,2013-07-30 06:43:00,
2013-07-29 23:53:00,64.0,54.0,29.80,ESE,116,14.0,15.0,70,0.00,,,0.00,,2013-07-30 06:53:00,